Time;durP1;ratioP1;P1;durP2;ratioP2;P2;SDS_P1;SDS_P2;PMS_P1;PMS_P2;Temp;Humidity;BMP_temperature;BMP_pressure;BME280_temperature;BME280_humidity;BME280_pressure;Samples;Min_cycle;Max_cycle;Signal;HPM_P1;HPM_P2
2023/06/25 00:00:12;;;;;;;;;;;20.50;85.30;;;;;;5012665;28;19925;-45
2023/06/25 00:02:38;;;;;;;;;;;20.50;85.70;;;;;;5031166;28;19925;-44
2023/06/25 00:05:05;;;;;;;;;;;20.40;85.50;;;;;;5029576;28;20451;-46
2023/06/25 00:07:34;;;;;;;;;;;20.40;85.60;;;;;;5013322;28;20030;-45
2023/06/25 00:10:01;;;;;;;;;;;20.40;85.70;;;;;;5030259;28;20050;-44
2023/06/25 00:12:27;;;;;;;;;;;20.30;86.80;;;;;;5012513;28;19925;-45
2023/06/25 00:14:54;;;;;;;;;;;20.30;85.80;;;;;;5013288;28;19949;-44
2023/06/25 00:17:21;;;;;;;;;;;20.30;86.40;;;;;;5025461;28;20357;-45
2023/06/25 00:19:47;;;;;;;;;;;20.30;86.40;;;;;;5034144;28;19925;-45
2023/06/25 00:22:15;;;;;;;;;;;20.20;86.60;;;;;;5034355;28;19925;-44
2023/06/25 00:24:43;;;;;;;;;;;20.20;86.50;;;;;;5031517;28;19936;-45
2023/06/25 00:27:09;;;;;;;;;;;20.10;87.00;;;;;;5033711;28;19933;-44
2023/06/25 00:29:36;;;;;;;;;;;20.10;86.40;;;;;;5032618;28;19933;-44
2023/06/25 00:32:03;;;;;;;;;;;20.10;86.80;;;;;;5017162;28;19939;-45
2023/06/25 00:34:29;;;;;;;;;;;20.10;86.70;;;;;;5046971;28;19959;-45
2023/06/25 00:36:56;;;;;;;;;;;20.10;86.70;;;;;;5016916;28;19928;-45
2023/06/25 00:39:23;;;;;;;;;;;20.00;86.80;;;;;;5016732;28;19933;-44
2023/06/25 00:41:51;;;;;;;;;;;20.00;86.90;;;;;;5034636;28;19968;-44
2023/06/25 00:44:17;;;;;;;;;;;20.00;87.70;;;;;;5017104;28;19925;-44
2023/06/25 00:46:44;;;;;;;;;;;19.90;87.10;;;;;;5049336;28;19968;-45
2023/06/25 00:49:13;;;;;;;;;;;19.90;87.50;;;;;;5049283;28;19929;-45
2023/06/25 00:51:40;;;;;;;;;;;19.90;87.80;;;;;;5033328;28;19932;-44
2023/06/25 00:54:06;;;;;;;;;;;19.80;87.80;;;;;;5034459;28;19980;-43
2023/06/25 00:56:33;;;;;;;;;;;19.80;87.80;;;;;;5033227;28;19929;-44
2023/06/25 00:59:02;;;;;;;;;;;19.80;88.00;;;;;;5033123;28;20017;-44
2023/06/25 01:01:36;;;;;;;;;;;19.70;88.80;;;;;;5032571;28;19929;-44
2023/06/25 01:04:06;;;;;;;;;;;19.70;88.80;;;;;;5049802;28;19925;-44
2023/06/25 01:06:35;;;;;;;;;;;19.60;89.40;;;;;;5033862;28;19963;-45
2023/06/25 01:09:02;;;;;;;;;;;19.60;89.80;;;;;;5017187;28;20014;-45
2023/06/25 01:11:29;;;;;;;;;;;19.60;90.60;;;;;;5032466;28;19925;-45
2023/06/25 01:13:56;;;;;;;;;;;19.50;90.40;;;;;;5033985;28;20357;-44
2023/06/25 01:16:24;;;;;;;;;;;19.40;90.30;;;;;;5048615;28;20297;-44
2023/06/25 01:18:51;;;;;;;;;;;19.40;90.10;;;;;;5033387;28;19967;-42
2023/06/25 01:21:17;;;;;;;;;;;19.30;90.10;;;;;;5047476;28;19932;-43
2023/06/25 01:23:45;;;;;;;;;;;19.30;90.10;;;;;;5032811;28;20372;-44
2023/06/25 01:26:12;;;;;;;;;;;19.30;90.00;;;;;;5032093;28;19932;-44
2023/06/25 01:28:39;;;;;;;;;;;19.30;90.10;;;;;;5033501;28;19925;-45
2023/06/25 01:31:05;;;;;;;;;;;19.30;90.30;;;;;;5032881;28;19929;-44
2023/06/25 01:33:32;;;;;;;;;;;19.30;90.30;;;;;;5015198;28;19929;-43
2023/06/25 01:35:59;;;;;;;;;;;19.30;90.20;;;;;;5049020;28;20013;-45
2023/06/25 01:38:26;;;;;;;;;;;19.20;90.30;;;;;;5032454;28;19955;-44
2023/06/25 01:40:54;;;;;;;;;;;19.20;90.40;;;;;;5033293;28;19929;-44
2023/06/25 01:43:20;;;;;;;;;;;19.20;90.30;;;;;;5033226;28;19994;-44
2023/06/25 01:45:47;;;;;;;;;;;19.20;90.40;;;;;;5033258;28;19998;-44
2023/06/25 01:48:14;;;;;;;;;;;19.20;90.40;;;;;;5032376;28;19929;-44
2023/06/25 01:50:41;;;;;;;;;;;19.20;90.40;;;;;;5032504;28;19925;-44
2023/06/25 01:53:07;;;;;;;;;;;19.20;90.70;;;;;;5032649;28;20017;-44
2023/06/25 01:55:34;;;;;;;;;;;19.10;90.60;;;;;;5032827;28;19926;-43
2023/06/25 01:58:02;;;;;;;;;;;19.10;90.60;;;;;;5014892;28;20039;-44
2023/06/25 02:00:29;;;;;;;;;;;19.10;90.60;;;;;;5017768;28;19932;-44
2023/06/25 02:02:56;;;;;;;;;;;19.10;90.50;;;;;;5031863;28;20366;-45
2023/06/25 02:05:22;;;;;;;;;;;19.10;90.70;;;;;;5047948;28;19972;-44
2023/06/25 02:07:49;;;;;;;;;;;19.00;90.70;;;;;;5015135;28;19929;-45
2023/06/25 02:10:16;;;;;;;;;;;19.00;90.80;;;;;;5032462;28;19963;-45
2023/06/25 02:12:43;;;;;;;;;;;19.00;90.90;;;;;;5015063;28;19961;-44
2023/06/25 02:15:11;;;;;;;;;;;18.90;90.90;;;;;;5031944;28;19926;-44
2023/06/25 02:17:38;;;;;;;;;;;18.90;91.30;;;;;;5013788;28;19986;-44
2023/06/25 02:20:05;;;;;;;;;;;18.90;91.30;;;;;;5032113;28;19948;-44
2023/06/25 02:22:32;;;;;;;;;;;18.90;91.30;;;;;;5032213;28;19925;-44
2023/06/25 02:24:59;;;;;;;;;;;18.90;91.40;;;;;;5008917;28;19933;-44
2023/06/25 02:27:25;;;;;;;;;;;18.80;91.40;;;;;;5032922;28;20011;-44
2023/06/25 02:29:52;;;;;;;;;;;18.80;91.50;;;;;;5047637;28;19925;-44
2023/06/25 02:32:20;;;;;;;;;;;18.80;91.60;;;;;;5030726;28;20437;-43
2023/06/25 02:34:47;;;;;;;;;;;18.80;91.60;;;;;;5035111;28;19941;-44
2023/06/25 02:37:14;;;;;;;;;;;18.70;91.70;;;;;;5032255;28;20050;-44
2023/06/25 02:39:41;;;;;;;;;;;18.70;92.00;;;;;;5032003;28;19936;-44
2023/06/25 02:42:07;;;;;;;;;;;18.70;92.00;;;;;;5014154;28;19983;-44
2023/06/25 02:44:34;;;;;;;;;;;18.70;91.90;;;;;;5032096;28;19933;-44
2023/06/25 02:47:01;;;;;;;;;;;18.70;92.10;;;;;;5032037;28;20044;-45
2023/06/25 02:49:29;;;;;;;;;;;18.60;91.90;;;;;;5031737;28;20014;-43
2023/06/25 02:51:56;;;;;;;;;;;18.60;92.00;;;;;;5038081;28;19932;-45
2023/06/25 02:54:22;;;;;;;;;;;18.60;92.40;;;;;;5014637;28;19959;-44
2023/06/25 02:56:50;;;;;;;;;;;18.60;92.30;;;;;;5031578;28;19932;-44
2023/06/25 02:59:17;;;;;;;;;;;18.50;92.70;;;;;;5031938;28;19926;-43
2023/06/25 03:01:43;;;;;;;;;;;18.50;92.80;;;;;;5031166;28;19983;-44
2023/06/25 03:04:10;;;;;;;;;;;18.50;93.20;;;;;;5032678;28;20023;-44
2023/06/25 03:06:38;;;;;;;;;;;18.50;93.00;;;;;;5031148;28;19929;-44
2023/06/25 03:09:05;;;;;;;;;;;18.50;93.00;;;;;;5040555;28;20041;-44
2023/06/25 03:11:32;;;;;;;;;;;18.40;93.10;;;;;;5012881;28;19928;-44
2023/06/25 03:13:59;;;;;;;;;;;18.40;93.10;;;;;;5031226;28;19980;-45
2023/06/25 03:16:26;;;;;;;;;;;18.40;93.10;;;;;;5047476;28;19970;-44
2023/06/25 03:18:53;;;;;;;;;;;18.40;93.30;;;;;;5047115;28;20371;-44
2023/06/25 03:21:20;;;;;;;;;;;18.30;93.30;;;;;;5031161;28;19925;-44
2023/06/25 03:23:48;;;;;;;;;;;18.30;93.20;;;;;;5029531;28;19965;-44
2023/06/25 03:26:14;;;;;;;;;;;18.30;93.40;;;;;;5011526;28;19932;-44
2023/06/25 03:28:41;;;;;;;;;;;18.30;93.70;;;;;;5031804;28;19986;-43
2023/06/25 03:31:07;;;;;;;;;;;18.30;93.80;;;;;;5013975;28;20393;-44
2023/06/25 03:33:34;;;;;;;;;;;18.30;93.70;;;;;;5030355;28;19929;-44
2023/06/25 03:36:01;;;;;;;;;;;18.30;93.70;;;;;;5030372;28;19966;-45
2023/06/25 03:38:28;;;;;;;;;;;18.20;93.80;;;;;;5013617;28;19932;-44
2023/06/25 03:40:56;;;;;;;;;;;18.20;93.70;;;;;;5029525;28;20283;-43
2023/06/25 03:43:22;;;;;;;;;;;18.20;93.80;;;;;;5014386;28;19932;-44
2023/06/25 03:45:49;;;;;;;;;;;18.20;93.90;;;;;;5030986;28;20016;-43
2023/06/25 03:48:16;;;;;;;;;;;18.20;94.40;;;;;;5031449;28;20365;-43
2023/06/25 03:50:42;;;;;;;;;;;18.20;94.00;;;;;;5031918;28;19989;-44
2023/06/25 03:53:09;;;;;;;;;;;18.20;94.00;;;;;;5016740;28;19932;-44
2023/06/25 03:55:36;;;;;;;;;;;18.20;95.10;;;;;;5018429;28;20031;-44
2023/06/25 03:58:04;;;;;;;;;;;18.20;94.70;;;;;;5046422;28;19925;-44
2023/06/25 04:00:31;;;;;;;;;;;18.20;95.70;;;;;;5027104;28;19976;-44
2023/06/25 04:02:57;;;;;;;;;;;18.20;95.50;;;;;;5035012;28;19929;-43
2023/06/25 04:05:24;;;;;;;;;;;18.20;95.90;;;;;;5033136;28;19926;-44
2023/06/25 04:07:51;;;;;;;;;;;18.20;95.30;;;;;;5018039;28;19925;-43
2023/06/25 04:10:17;;;;;;;;;;;18.20;95.30;;;;;;5034356;28;19976;-43
2023/06/25 04:12:44;;;;;;;;;;;18.20;95.30;;;;;;5033609;28;19925;-44
2023/06/25 04:15:12;;;;;;;;;;;18.20;95.60;;;;;;5012037;28;19980;-44
2023/06/25 04:17:40;;;;;;;;;;;18.20;96.10;;;;;;5033447;28;19933;-44
2023/06/25 04:20:07;;;;;;;;;;;18.20;95.80;;;;;;5050757;28;20350;-43
2023/06/25 04:22:34;;;;;;;;;;;18.20;95.80;;;;;;5034630;28;19946;-44
2023/06/25 04:25:00;;;;;;;;;;;18.30;95.80;;;;;;5034486;28;20286;-44
2023/06/25 04:27:27;;;;;;;;;;;18.20;96.00;;;;;;5034444;28;19925;-44
2023/06/25 04:29:54;;;;;;;;;;;18.20;96.60;;;;;;5034757;28;20102;-44
2023/06/25 04:32:22;;;;;;;;;;;18.20;97.30;;;;;;5028328;28;20012;-44
2023/06/25 04:34:48;;;;;;;;;;;18.30;97.10;;;;;;5034173;28;19929;-44
2023/06/25 04:37:15;;;;;;;;;;;18.30;96.80;;;;;;5043769;28;19926;-44
2023/06/25 04:39:42;;;;;;;;;;;18.30;98.60;;;;;;5006620;28;19968;-43
2023/06/25 04:42:09;;;;;;;;;;;18.30;97.90;;;;;;5049245;28;19936;-44
2023/06/25 04:44:35;;;;;;;;;;;18.30;99.90;;;;;;5017240;28;19946;-43
2023/06/25 04:47:02;;;;;;;;;;;18.30;99.70;;;;;;5034774;28;19979;-43
2023/06/25 04:49:30;;;;;;;;;;;18.30;99.90;;;;;;5026647;28;19929;-44
2023/06/25 04:51:57;;;;;;;;;;;18.30;99.90;;;;;;5033246;28;19960;-44
2023/06/25 04:54:23;;;;;;;;;;;18.40;99.90;;;;;;5033833;28;19925;-43
2023/06/25 04:56:50;;;;;;;;;;;18.40;99.90;;;;;;5034302;28;19925;-43
2023/06/25 04:59:17;;;;;;;;;;;18.40;99.90;;;;;;5032112;28;19933;-43
2023/06/25 05:01:43;;;;;;;;;;;18.50;99.90;;;;;;5033378;28;19967;-43
2023/06/25 05:04:10;;;;;;;;;;;18.50;99.90;;;;;;5032821;28;19948;-43
2023/06/25 05:06:38;;;;;;;;;;;18.50;99.90;;;;;;5014311;28;19964;-43
2023/06/25 05:09:05;;;;;;;;;;;18.60;99.90;;;;;;5016222;28;19925;-43
2023/06/25 05:11:32;;;;;;;;;;;18.60;99.90;;;;;;5032445;28;20361;-43
2023/06/25 05:13:58;;;;;;;;;;;18.70;99.90;;;;;;5016286;28;19963;-43
2023/06/25 05:16:25;;;;;;;;;;;18.70;99.90;;;;;;5014452;28;19925;-44
2023/06/25 05:18:52;;;;;;;;;;;18.80;99.90;;;;;;5033845;28;19975;-43
2023/06/25 05:21:18;;;;;;;;;;;18.90;99.90;;;;;;5034272;28;19991;-44
2023/06/25 05:23:57;;;;;;;;;;;18.90;99.90;;;;;;5023647;28;20436;-44
2023/06/25 05:26:23;;;;;;;;;;;19.00;99.90;;;;;;5032032;28;19932;-44
2023/06/25 05:28:50;;;;;;;;;;;19.10;99.90;;;;;;5015956;28;19963;-44
2023/06/25 05:31:17;;;;;;;;;;;19.20;99.90;;;;;;5015481;28;20013;-43
2023/06/25 05:33:43;;;;;;;;;;;19.30;99.90;;;;;;5016071;28;20017;-43
2023/06/25 05:36:10;;;;;;;;;;;19.40;99.90;;;;;;5033563;28;20412;-43
2023/06/25 05:38:37;;;;;;;;;;;19.50;99.90;;;;;;5032989;28;20438;-44
2023/06/25 05:41:05;;;;;;;;;;;19.60;99.90;;;;;;5044688;28;19978;-44
2023/06/25 05:43:32;;;;;;;;;;;19.70;99.90;;;;;;5033334;28;19925;-43
2023/06/25 05:45:58;;;;;;;;;;;19.80;99.90;;;;;;5015571;28;19929;-44
2023/06/25 05:48:26;;;;;;;;;;;19.90;99.90;;;;;;5033834;28;19932;-44
2023/06/25 05:50:53;;;;;;;;;;;20.00;99.90;;;;;;5048379;28;20354;-44
2023/06/25 05:53:19;;;;;;;;;;;20.10;99.90;;;;;;5032795;28;19971;-43
2023/06/25 05:55:46;;;;;;;;;;;20.20;99.90;;;;;;5048282;28;19932;-45
2023/06/25 05:58:14;;;;;;;;;;;20.30;99.90;;;;;;5021219;28;19945;-44
2023/06/25 06:00:41;;;;;;;;;;;20.40;99.90;;;;;;5032764;28;20365;-43
2023/06/25 06:03:07;;;;;;;;;;;20.50;99.90;;;;;;5015409;28;20330;-43
2023/06/25 06:05:34;;;;;;;;;;;20.60;99.90;;;;;;5032584;28;19931;-44
2023/06/25 06:08:01;;;;;;;;;;;20.80;99.90;;;;;;5032564;28;19959;-44
2023/06/25 06:10:28;;;;;;;;;;;20.90;99.90;;;;;;5031451;28;20411;-45
2023/06/25 06:12:54;;;;;;;;;;;21.00;99.90;;;;;;5032615;28;19979;-43
2023/06/25 06:15:22;;;;;;;;;;;21.10;99.90;;;;;;4999707;28;19976;-44
2023/06/25 06:17:49;;;;;;;;;;;21.30;99.90;;;;;;5008656;28;19936;-45
2023/06/25 06:20:16;;;;;;;;;;;21.50;99.90;;;;;;5046949;28;19925;-44
2023/06/25 06:22:42;;;;;;;;;;;21.60;99.90;;;;;;5031505;28;19930;-44
2023/06/25 06:25:09;;;;;;;;;;;21.70;99.90;;;;;;5022723;28;19984;-44
2023/06/25 06:27:36;;;;;;;;;;;21.90;99.90;;;;;;5031760;28;19975;-45
2023/06/25 06:30:02;;;;;;;;;;;22.00;99.90;;;;;;5032353;28;20373;-45
2023/06/25 06:32:30;;;;;;;;;;;22.10;99.90;;;;;;5012080;28;19929;-43
2023/06/25 06:34:57;;;;;;;;;;;22.20;99.90;;;;;;5021545;28;19932;-44
2023/06/25 06:37:24;;;;;;;;;;;22.40;99.90;;;;;;5048046;28;19925;-45
2023/06/25 06:39:50;;;;;;;;;;;22.50;99.90;;;;;;5022526;28;20270;-44
2023/06/25 06:42:17;;;;;;;;;;;22.70;99.90;;;;;;5020829;28;19963;-43
2023/06/25 06:44:44;;;;;;;;;;;22.80;99.90;;;;;;5030674;28;20697;-44
2023/06/25 06:47:10;;;;;;;;;;;22.90;99.90;;;;;;5011744;28;20017;-44
2023/06/25 06:49:39;;;;;;;;;;;23.00;99.90;;;;;;5023037;28;19929;-44
2023/06/25 06:52:05;;;;;;;;;;;23.10;99.90;;;;;;5012381;28;20357;-44
2023/06/25 06:54:32;;;;;;;;;;;23.20;99.90;;;;;;5030954;28;19932;-45
2023/06/25 06:56:59;;;;;;;;;;;23.30;99.90;;;;;;5030741;28;19937;-43
2023/06/25 06:59:25;;;;;;;;;;;23.50;99.90;;;;;;5031422;28;19987;-43
2023/06/25 07:01:52;;;;;;;;;;;23.70;99.60;;;;;;5029911;28;19925;-43
2023/06/25 07:04:19;;;;;;;;;;;23.80;98.90;;;;;;5029299;28;19948;-45
2023/06/25 07:06:47;;;;;;;;;;;23.80;99.00;;;;;;5028931;28;19929;-45
2023/06/25 07:09:14;;;;;;;;;;;24.00;98.80;;;;;;5029525;28;19936;-46
2023/06/25 07:11:40;;;;;;;;;;;24.10;98.60;;;;;;5012836;28;19932;-45
2023/06/25 07:14:07;;;;;;;;;;;24.20;98.50;;;;;;5029626;28;19933;-44
2023/06/25 07:16:34;;;;;;;;;;;24.40;98.50;;;;;;5031189;28;19926;-46
2023/06/25 07:19:01;;;;;;;;;;;24.50;98.50;;;;;;5013723;28;19932;-44
2023/06/25 07:21:28;;;;;;;;;;;24.70;98.40;;;;;;5030382;28;19959;-44
2023/06/25 07:23:56;;;;;;;;;;;25.00;97.90;;;;;;5020757;28;20399;-44
2023/06/25 07:26:22;;;;;;;;;;;25.10;97.40;;;;;;5012359;28;19929;-45
2023/06/25 07:28:49;;;;;;;;;;;25.20;97.10;;;;;;5032111;28;19983;-44
2023/06/25 07:31:16;;;;;;;;;;;25.30;96.90;;;;;;5006537;28;20035;-43
2023/06/25 07:33:42;;;;;;;;;;;25.50;96.70;;;;;;5028338;28;20014;-44
2023/06/25 07:36:11;;;;;;;;;;;25.50;96.30;;;;;;5010609;28;20246;-44
2023/06/25 07:38:38;;;;;;;;;;;25.70;96.40;;;;;;5045031;28;20059;-44
2023/06/25 07:41:06;;;;;;;;;;;25.90;96.20;;;;;;5011559;28;19962;-44
2023/06/25 07:43:32;;;;;;;;;;;26.00;95.80;;;;;;5047995;28;20385;-44
2023/06/25 07:45:59;;;;;;;;;;;26.10;95.80;;;;;;5030304;28;19935;-45
2023/06/25 07:48:26;;;;;;;;;;;26.30;94.60;;;;;;5013221;28;19934;-46
2023/06/25 07:50:52;;;;;;;;;;;26.30;95.20;;;;;;5029799;28;20021;-43
2023/06/25 07:53:19;;;;;;;;;;;26.50;95.30;;;;;;4970798;28;20007;-44
2023/06/25 07:55:47;;;;;;;;;;;26.70;94.50;;;;;;4992218;28;19926;-45
2023/06/25 07:58:15;;;;;;;;;;;26.80;94.00;;;;;;5006285;28;20323;-44
2023/06/25 08:00:41;;;;;;;;;;;27.00;94.00;;;;;;5009380;28;20373;-44
2023/06/25 08:03:08;;;;;;;;;;;27.20;93.10;;;;;;5009930;28;19936;-44
2023/06/25 08:05:35;;;;;;;;;;;27.20;93.10;;;;;;5003261;28;19956;-45
2023/06/25 08:08:01;;;;;;;;;;;27.30;92.70;;;;;;4985375;28;19956;-45
2023/06/25 08:10:28;;;;;;;;;;;27.40;92.00;;;;;;5008211;28;19930;-45
2023/06/25 08:12:55;;;;;;;;;;;27.50;92.80;;;;;;4987455;28;20062;-45
2023/06/25 08:15:23;;;;;;;;;;;27.70;92.10;;;;;;5008761;28;20250;-45
2023/06/25 08:17:49;;;;;;;;;;;27.80;92.80;;;;;;4994705;28;20348;-44
2023/06/25 08:20:16;;;;;;;;;;;27.90;92.50;;;;;;5010773;28;19940;-45
2023/06/25 08:22:43;;;;;;;;;;;28.10;91.50;;;;;;4992401;28;20005;-43
2023/06/25 08:25:19;;;;;;;;;;;28.20;91.80;;;;;;5007978;28;19977;-46
2023/06/25 08:27:45;;;;;;;;;;;28.40;91.60;;;;;;5001654;28;19975;-44
2023/06/25 08:30:12;;;;;;;;;;;28.60;91.40;;;;;;5007850;28;20301;-45
2023/06/25 08:32:45;;;;;;;;;;;28.70;90.50;;;;;;5012876;28;19963;-45
2023/06/25 08:35:12;;;;;;;;;;;28.80;83.30;;;;;;4990234;28;20419;-46
2023/06/25 08:37:39;;;;;;;;;;;28.70;87.10;;;;;;5007673;28;19956;-46
2023/06/25 08:40:06;;;;;;;;;;;28.80;85.50;;;;;;4995094;28;20447;-44
2023/06/25 08:42:33;;;;;;;;;;;28.90;87.30;;;;;;5011061;28;19966;-44
2023/06/25 08:44:59;;;;;;;;;;;29.10;85.10;;;;;;5005598;28;19964;-46
2023/06/25 08:47:27;;;;;;;;;;;29.20;81.80;;;;;;4994633;28;19926;-44
2023/06/25 08:49:55;;;;;;;;;;;29.20;82.40;;;;;;5011041;28;19940;-45
2023/06/25 08:52:22;;;;;;;;;;;29.30;84.20;;;;;;5013225;28;19948;-45
2023/06/25 08:54:49;;;;;;;;;;;29.40;83.20;;;;;;4996734;28;19932;-45
2023/06/25 08:57:15;;;;;;;;;;;29.60;84.40;;;;;;5014216;28;19926;-45
2023/06/25 08:59:42;;;;;;;;;;;29.80;84.90;;;;;;5011857;28;19966;-45
2023/06/25 09:02:09;;;;;;;;;;;29.90;77.20;;;;;;5012665;28;20001;-45
2023/06/25 09:04:37;;;;;;;;;;;29.90;79.00;;;;;;5004768;28;19955;-46
2023/06/25 09:07:08;;;;;;;;;;;29.90;79.90;;;;;;4986726;28;20368;-45
2023/06/25 09:09:35;;;;;;;;;;;30.00;73.30;;;;;;4979933;28;19930;-44
2023/06/25 09:12:02;;;;;;;;;;;30.00;76.80;;;;;;5011326;28;19925;-45
2023/06/25 09:14:29;;;;;;;;;;;30.00;73.40;;;;;;5004312;28;19926;-45
2023/06/25 09:16:56;;;;;;;;;;;30.10;75.80;;;;;;4988642;28;20017;-45
2023/06/25 09:19:23;;;;;;;;;;;30.20;74.10;;;;;;4993830;28;19940;-45
2023/06/25 09:21:50;;;;;;;;;;;30.30;73.70;;;;;;5009809;28;20382;-45
2023/06/25 09:24:18;;;;;;;;;;;30.40;72.40;;;;;;5008199;28;19955;-45
2023/06/25 09:26:45;;;;;;;;;;;30.40;71.50;;;;;;5008183;28;20055;-45
2023/06/25 09:29:12;;;;;;;;;;;30.50;71.20;;;;;;5015532;28;19925;-45
2023/06/25 09:31:41;;;;;;;;;;;30.60;72.90;;;;;;5007445;28;20399;-45
2023/06/25 09:34:07;;;;;;;;;;;30.80;70.90;;;;;;4992643;28;19980;-45
2023/06/25 09:36:35;;;;;;;;;;;30.80;71.10;;;;;;5012220;28;20012;-46
2023/06/25 09:39:02;;;;;;;;;;;30.90;70.00;;;;;;5012877;28;19929;-46
2023/06/25 09:41:31;;;;;;;;;;;31.00;71.10;;;;;;5011587;28;20314;-45
2023/06/25 09:43:57;;;;;;;;;;;31.10;64.30;;;;;;5001854;28;19931;-45
2023/06/25 09:46:24;;;;;;;;;;;31.20;68.10;;;;;;4994730;28;19944;-45
2023/06/25 09:48:51;;;;;;;;;;;31.30;68.20;;;;;;5011516;28;20073;-45
2023/06/25 09:51:18;;;;;;;;;;;31.40;66.80;;;;;;5010940;28;19956;-44
2023/06/25 09:53:45;;;;;;;;;;;31.60;68.90;;;;;;5009109;28;19964;-46
2023/06/25 09:56:12;;;;;;;;;;;31.70;69.00;;;;;;4988439;28;20411;-45
2023/06/25 09:58:40;;;;;;;;;;;31.80;64.40;;;;;;5009945;28;20427;-46
2023/06/25 10:01:07;;;;;;;;;;;31.80;65.50;;;;;;5004532;28;19941;-45
2023/06/25 10:03:34;;;;;;;;;;;31.80;65.80;;;;;;4986899;28;20396;-46
2023/06/25 10:06:00;;;;;;;;;;;31.80;65.60;;;;;;5007447;28;20017;-45
2023/06/25 10:08:27;;;;;;;;;;;31.90;62.80;;;;;;4993670;28;19926;-45
2023/06/25 10:10:58;;;;;;;;;;;31.90;60.90;;;;;;5011454;28;19967;-45
2023/06/25 10:13:24;;;;;;;;;;;31.90;63.20;;;;;;4995962;28;19925;-45
2023/06/25 10:15:58;;;;;;;;;;;31.80;62.20;;;;;;4994622;28;20407;-44
2023/06/25 10:18:25;;;;;;;;;;;31.80;64.20;;;;;;5004851;28;19926;-44
2023/06/25 10:20:52;;;;;;;;;;;31.90;64.10;;;;;;5011801;28;19980;-44
2023/06/25 10:23:21;;;;;;;;;;;32.10;64.20;;;;;;5010961;28;20327;-44
2023/06/25 10:25:52;;;;;;;;;;;32.30;60.60;;;;;;4990923;28;19960;-43
2023/06/25 10:28:18;;;;;;;;;;;32.30;61.90;;;;;;5009643;28;19933;-45
2023/06/25 10:30:46;;;;;;;;;;;32.40;63.20;;;;;;5013042;28;19930;-45
2023/06/25 10:33:15;;;;;;;;;;;32.60;63.20;;;;;;5001628;28;19926;-45
2023/06/25 10:35:42;;;;;;;;;;;32.70;61.60;;;;;;5012728;28;19964;-45
2023/06/25 10:38:09;;;;;;;;;;;32.70;62.70;;;;;;5011433;28;20306;-44
2023/06/25 10:40:36;;;;;;;;;;;32.80;60.20;;;;;;4983678;28;19932;-44
2023/06/25 10:43:02;;;;;;;;;;;32.80;57.20;;;;;;5008417;28;19956;-45
2023/06/25 10:45:29;;;;;;;;;;;32.80;58.10;;;;;;5011954;28;19925;-44
2023/06/25 10:48:03;;;;;;;;;;;32.90;56.70;;;;;;5008497;28;20305;-45
2023/06/25 10:50:31;;;;;;;;;;;33.10;57.00;;;;;;5010169;28;19961;-44
2023/06/25 10:52:58;;;;;;;;;;;33.10;56.30;;;;;;4990718;28;20456;-44
2023/06/25 10:55:25;;;;;;;;;;;33.10;57.00;;;;;;5008212;28;19934;-45
2023/06/25 10:57:52;;;;;;;;;;;33.10;56.50;;;;;;5009546;28;19933;-44
2023/06/25 11:00:21;;;;;;;;;;;33.10;55.10;;;;;;5000743;28;19947;-44
2023/06/25 11:02:50;;;;;;;;;;;33.20;58.20;;;;;;5008319;28;20018;-44
2023/06/25 11:05:16;;;;;;;;;;;33.20;57.90;;;;;;5009278;28;19987;-44
2023/06/25 11:07:44;;;;;;;;;;;33.30;55.70;;;;;;5004780;28;19930;-45
2023/06/25 11:10:13;;;;;;;;;;;33.40;57.30;;;;;;4985837;28;20003;-44
2023/06/25 11:12:39;;;;;;;;;;;33.50;58.60;;;;;;5002396;28;20435;-45
2023/06/25 11:15:06;;;;;;;;;;;33.60;55.60;;;;;;4988948;28;19972;-45
2023/06/25 11:17:33;;;;;;;;;;;33.60;55.50;;;;;;5004897;28;19926;-46
2023/06/25 11:20:00;;;;;;;;;;;33.60;55.90;;;;;;5003740;28;20028;-46
2023/06/25 11:22:27;;;;;;;;;;;33.40;54.40;;;;;;4984828;28;20602;-47
2023/06/25 11:24:56;;;;;;;;;;;33.40;55.40;;;;;;4988046;28;19930;-46
2023/06/25 11:27:24;;;;;;;;;;;33.40;53.90;;;;;;4992043;28;19932;-47
2023/06/25 11:29:50;;;;;;;;;;;33.40;55.60;;;;;;5010398;28;19959;-46
2023/06/25 11:32:21;;;;;;;;;;;33.40;56.00;;;;;;5009986;28;19929;-45
2023/06/25 11:34:48;;;;;;;;;;;33.40;56.10;;;;;;4991182;28;19969;-45
2023/06/25 11:37:15;;;;;;;;;;;33.60;56.60;;;;;;4988947;28;19972;-46
2023/06/25 11:39:42;;;;;;;;;;;33.60;53.80;;;;;;4991743;28;19929;-45
2023/06/25 11:42:12;;;;;;;;;;;33.50;55.10;;;;;;4993019;28;19996;-44
2023/06/25 11:44:38;;;;;;;;;;;33.60;55.30;;;;;;4992402;28;19984;-45
2023/06/25 11:47:05;;;;;;;;;;;33.70;54.70;;;;;;5011030;28;19932;-45
2023/06/25 11:49:32;;;;;;;;;;;33.70;55.40;;;;;;5010809;28;20407;-45
2023/06/25 11:51:59;;;;;;;;;;;33.90;55.90;;;;;;5011094;28;19933;-39
2023/06/25 11:54:25;;;;;;;;;;;33.90;56.20;;;;;;5006122;28;19976;-39
2023/06/25 11:56:52;;;;;;;;;;;34.00;54.40;;;;;;4989880;28;20015;-38
2023/06/25 11:59:20;;;;;;;;;;;33.90;53.10;;;;;;5007904;28;19925;-37
2023/06/25 12:01:47;;;;;;;;;;;34.00;53.90;;;;;;5002997;28;19964;-39
2023/06/25 12:04:13;;;;;;;;;;;34.00;52.60;;;;;;5004618;28;19925;-37
2023/06/25 12:06:40;;;;;;;;;;;34.10;55.60;;;;;;5002780;28;19933;-38
2023/06/25 12:09:07;;;;;;;;;;;34.30;56.40;;;;;;5010105;28;20344;-35
2023/06/25 12:11:34;;;;;;;;;;;34.60;57.10;;;;;;5000368;28;19925;-37
2023/06/25 12:14:01;;;;;;;;;;;34.80;54.90;;;;;;5004005;28;19926;-36
2023/06/25 12:16:29;;;;;;;;;;;34.80;52.90;;;;;;5010960;28;19933;-37
2023/06/25 12:18:56;;;;;;;;;;;34.80;55.50;;;;;;4993487;28;19925;-36
2023/06/25 12:21:23;;;;;;;;;;;34.70;52.40;;;;;;5010146;28;20386;-38
2023/06/25 12:23:49;;;;;;;;;;;34.70;52.60;;;;;;5005383;28;19933;-37
2023/06/25 12:26:16;;;;;;;;;;;34.70;52.90;;;;;;5007655;28;19949;-38
2023/06/25 12:28:43;;;;;;;;;;;34.70;54.90;;;;;;5007148;28;19929;-37
2023/06/25 12:31:10;;;;;;;;;;;34.80;55.10;;;;;;4992299;28;19925;-37
2023/06/25 12:33:38;;;;;;;;;;;34.90;52.70;;;;;;5005677;28;19933;-37
2023/06/25 12:36:05;;;;;;;;;;;34.90;54.40;;;;;;5006035;28;19925;-37
2023/06/25 12:38:31;;;;;;;;;;;35.00;55.20;;;;;;4994053;28;19929;-38
2023/06/25 12:40:58;;;;;;;;;;;35.10;56.40;;;;;;4985918;28;19926;-37
2023/06/25 12:43:25;;;;;;;;;;;35.20;55.50;;;;;;4993759;28;19984;-37
2023/06/25 12:45:51;;;;;;;;;;;35.40;55.90;;;;;;4995875;28;19931;-37
2023/06/25 12:48:18;;;;;;;;;;;35.50;55.90;;;;;;5011146;28;19930;-38
2023/06/25 12:50:46;;;;;;;;;;;35.70;56.70;;;;;;5009390;28;20304;-38
2023/06/25 12:53:13;;;;;;;;;;;35.80;56.20;;;;;;5010551;28;19932;-38
2023/06/25 12:55:40;;;;;;;;;;;35.80;54.30;;;;;;4987807;28;20382;-37
2023/06/25 12:58:06;;;;;;;;;;;35.80;54.00;;;;;;5008419;28;19926;-37
2023/06/25 13:00:33;;;;;;;;;;;35.80;54.90;;;;;;4991426;28;19933;-38
2023/06/25 13:03:00;;;;;;;;;;;35.80;54.40;;;;;;5010847;28;19933;-38
2023/06/25 13:05:26;;;;;;;;;;;35.80;55.10;;;;;;5007536;28;20397;-39
2023/06/25 13:07:54;;;;;;;;;;;35.90;52.70;;;;;;5009522;28;19969;-37
2023/06/25 13:10:21;;;;;;;;;;;35.90;53.30;;;;;;5000437;28;20263;-38
2023/06/25 13:12:48;;;;;;;;;;;35.90;53.60;;;;;;4995221;28;19933;-37
2023/06/25 13:15:14;;;;;;;;;;;35.90;53.90;;;;;;5005062;28;19933;-39
2023/06/25 13:17:41;;;;;;;;;;;35.90;55.90;;;;;;5004986;28;19980;-38
2023/06/25 13:20:08;;;;;;;;;;;36.10;55.50;;;;;;5011352;28;19925;-38
2023/06/25 13:22:35;;;;;;;;;;;36.20;54.70;;;;;;5010105;28;19941;-39
2023/06/25 13:25:03;;;;;;;;;;;36.20;50.30;;;;;;5006667;28;19974;-40
2023/06/25 13:27:30;;;;;;;;;;;36.20;52.50;;;;;;5010259;28;19933;-38
2023/06/25 13:29:57;;;;;;;;;;;36.20;51.60;;;;;;5011429;28;19933;-38
2023/06/25 13:32:23;;;;;;;;;;;36.20;53.20;;;;;;5004870;28;19929;-38
2023/06/25 13:34:50;;;;;;;;;;;36.20;51.00;;;;;;5011144;28;19948;-36
2023/06/25 13:37:17;;;;;;;;;;;36.30;54.20;;;;;;5008539;28;19929;-38
2023/06/25 13:39:44;;;;;;;;;;;36.60;53.90;;;;;;4992809;28;19929;-38
2023/06/25 13:42:13;;;;;;;;;;;36.60;51.70;;;;;;5011288;28;19972;-38
2023/06/25 13:44:39;;;;;;;;;;;36.60;53.10;;;;;;5010121;28;19931;-38
2023/06/25 13:47:07;;;;;;;;;;;36.70;53.80;;;;;;5010445;28;19925;-38
2023/06/25 13:49:34;;;;;;;;;;;36.70;51.70;;;;;;4981854;28;20292;-38
2023/06/25 13:52:00;;;;;;;;;;;36.70;51.50;;;;;;4993528;28;19925;-37
2023/06/25 13:54:27;;;;;;;;;;;36.60;53.10;;;;;;5012067;28;19969;-37
2023/06/25 13:56:54;;;;;;;;;;;36.70;53.20;;;;;;5002960;28;19926;-37
2023/06/25 13:59:22;;;;;;;;;;;36.60;52.40;;;;;;4984148;28;19925;-38
2023/06/25 14:01:49;;;;;;;;;;;36.80;52.60;;;;;;4985475;28;19981;-38
2023/06/25 14:04:15;;;;;;;;;;;36.80;53.40;;;;;;4987956;28;19933;-38
2023/06/25 14:06:42;;;;;;;;;;;36.80;53.10;;;;;;5005254;28;19937;-38
2023/06/25 14:09:09;;;;;;;;;;;37.00;54.40;;;;;;4992959;28;19973;-37
2023/06/25 14:11:35;;;;;;;;;;;37.10;51.90;;;;;;5004992;28;20396;-38
2023/06/25 14:14:02;;;;;;;;;;;37.10;52.00;;;;;;4987091;28;19980;-39